CheckWX is a tool to help pilots better visualize weather data.  It is not intended as a substitute for an official pre-flight weather briefing.

21:37:56 UTC

DNKT TAF
Katsina / Yaradura Airport
Katsina, Nigeria
TAF DNKT 201550Z 2018/2124 16006KT CAVOK

Mar-20@
18:00 UTC

Mar-20 @ 18:00 UTC

Mar-22@
00:00 UTC

Mar-22 @ 00:00 UTC

TAF DNKT 201550Z 2018/2124 16006KT CAVOK
Wind
  • 160° at 6 KTS
Conditions
No significant weather
Cloud Levels
  • No significant clouds